createdAt,value
2019-02-10T00:03:02.241Z,13
2019-02-10T00:08:49.985Z,12.2
2019-02-10T00:14:36.829Z,11.4
2019-02-10T00:20:22.323Z,11.6
2019-02-10T00:26:09.934Z,10.8
2019-02-10T00:31:57.321Z,10.5
2019-02-10T00:37:45.723Z,11
2019-02-10T00:45:16.119Z,10.8
2019-02-10T00:51:03.574Z,9.7
2019-02-10T00:59:25.732Z,9.5
2019-02-10T01:05:12.850Z,9.5
2019-02-10T01:13:29.634Z,8.5
2019-02-10T01:19:16.694Z,8.4
2019-02-10T01:27:37.560Z,8.2
2019-02-10T01:33:24.272Z,7.2
2019-02-10T01:39:11.372Z,7.7
2019-02-10T01:45:03.015Z,7.2
2019-02-10T01:50:49.802Z,7
2019-02-10T01:56:36.874Z,6.3
2019-02-10T02:02:24.288Z,6.8
2019-02-10T02:09:30.700Z,6.6
2019-02-10T02:15:19.071Z,6.7
2019-02-10T02:23:21.869Z,6
2019-02-10T02:29:08.655Z,5.9
2019-02-10T02:41:49.009Z,5.2
2019-02-10T02:47:36.310Z,5.5
2019-02-10T02:53:23.765Z,5.1
2019-02-10T02:59:11.082Z,5.2
2019-02-10T03:04:58.123Z,4.9
2019-02-10T03:10:47.445Z,4.6
2019-02-10T03:18:40.822Z,4.4
2019-02-10T03:24:28.713Z,4.7
2019-02-10T03:32:46.425Z,4.5
2019-02-10T03:38:33.764Z,4.4
2019-02-10T03:46:42.499Z,3.9
2019-02-10T03:52:29.830Z,4
2019-02-10T04:00:33.363Z,4
2019-02-10T04:06:21.191Z,3.4
2019-02-10T04:14:18.281Z,3.7
2019-02-10T04:20:05.781Z,3.7
2019-02-10T04:28:14.213Z,3.2
2019-02-10T04:34:01.118Z,3.2
2019-02-10T04:42:24.236Z,3.2
2019-02-10T04:48:11.046Z,3.4
2019-02-10T04:53:57.951Z,3.2
2019-02-10T04:59:49.366Z,2.8
2019-02-10T05:05:37.670Z,2.9
2019-02-10T05:11:24.511Z,3.3
2019-02-10T05:17:12.085Z,2.6
2019-02-10T05:23:30.702Z,2.6
2019-02-10T05:29:17.891Z,2.5
2019-02-10T05:37:30.002Z,2.5
2019-02-10T05:43:16.703Z,2.7
2019-02-10T05:50:27.448Z,2.7
2019-02-10T05:52:50.012Z,2.5
2019-02-10T05:56:06.649Z,2.6
2019-02-10T05:58:53.794Z,2.3
2019-02-10T06:01:40.699Z,2.6
2019-02-10T06:05:40.147Z,2.6
2019-02-10T06:08:34.896Z,2.3
2019-02-10T06:11:22.393Z,2.7
2019-02-10T06:14:09.533Z,2.4
2019-02-10T06:18:43.164Z,4.2
2019-02-10T06:36:12.396Z,3.1
2019-02-10T07:33:00.963Z,6.3
2019-02-10T07:37:59.125Z,6
2019-02-10T07:43:54.053Z,5.1
2019-02-10T07:49:04.376Z,4.9
2019-02-10T07:54:51.829Z,4.7
2019-02-10T08:00:39.288Z,4.6
2019-02-10T08:06:26.807Z,3.9
2019-02-10T08:14:13.982Z,3.7
2019-02-10T08:20:01.361Z,4.1
2019-02-10T08:25:48.829Z,3.7
2019-02-10T08:32:30.932Z,5.5
2019-02-10T08:38:26.708Z,7.4
2019-02-10T08:44:14.497Z,10.7
2019-02-10T08:50:55.985Z,10.9
2019-02-10T08:56:42.968Z,10.4
2019-02-10T09:02:30.408Z,10.2
2019-02-10T09:08:17.904Z,10.8
2019-02-10T09:14:05.392Z,11.9
2019-02-10T09:20:49.690Z,10.3
2019-02-10T09:26:36.419Z,10.8
2019-02-10T09:32:23.133Z,10.3
2019-02-10T09:38:12.572Z,10.2
2019-02-10T09:44:00.267Z,9.1
2019-02-10T09:49:47.936Z,9.7
2019-02-10T09:55:35.216Z,10
2019-02-10T10:01:22.961Z,9.4
2019-02-10T10:07:10.494Z,9.5
2019-02-10T10:12:53.293Z,12.2
2019-02-10T10:18:40.088Z,15.6
2019-02-10T10:26:56.428Z,16.4
2019-02-10T10:32:43.995Z,15.8
2019-02-10T10:38:30.842Z,17.1
2019-02-10T10:44:16.968Z,21
2019-02-10T10:50:01.988Z,32.5
